Time;durP1;ratioP1;P1;durP2;ratioP2;P2;SDS_P1;SDS_P2;PMS_P1;PMS_P2;Temp;Humidity;BMP_temperature;BMP_pressure;BME280_temperature;BME280_humidity;BME280_pressure;Samples;Min_cycle;Max_cycle;Signal;HPM_P1;HPM_P2
2021/09/01 00:01:36;;;;;;;13.83;6.97;;;;;;;15.53;82.19;101833.16;5047581;28;20206;-80
2021/09/01 00:04:03;;;;;;;15.83;6.73;;;;;;;15.54;81.89;101836.69;5067976;28;20205;-79
2021/09/01 00:06:31;;;;;;;18.93;6.60;;;;;;;15.53;82.35;101838.50;5057534;28;20198;-80
2021/09/01 00:08:57;;;;;;;21.27;7.07;;;;;;;15.54;81.91;101842.06;5067259;28;20205;-80
2021/09/01 00:11:24;;;;;;;17.37;7.27;;;;;;;15.53;81.89;101835.84;5058781;28;20216;-78
2021/09/01 00:13:51;;;;;;;19.80;7.20;;;;;;;15.51;82.08;101840.44;5058295;28;20665;-79
2021/09/01 00:16:27;;;;;;;13.83;6.17;;;;;;;15.52;81.77;101843.97;5054662;28;20276;-79
2021/09/01 00:18:54;;;;;;;16.23;6.83;;;;;;;15.51;81.94;101840.44;5055557;28;20205;-79
2021/09/01 00:21:21;;;;;;;19.50;7.00;;;;;;;15.51;81.95;101837.75;5056905;28;20206;-80
2021/09/01 00:23:49;;;;;;;12.37;6.47;;;;;;;15.51;81.81;101832.38;5055582;28;20205;-79
2021/09/01 00:26:15;;;;;;;13.13;6.40;;;;;;;15.50;81.71;101825.28;5056599;28;20205;-81
2021/09/01 00:28:42;;;;;;;14.20;6.40;;;;;;;15.49;81.98;101826.25;5055832;28;20210;-80
2021/09/01 00:31:09;;;;;;;13.87;6.70;;;;;;;15.49;81.89;101826.25;5055634;28;20205;-79
2021/09/01 00:33:36;;;;;;;16.27;6.87;;;;;;;15.49;81.97;101828.94;5054874;28;20232;-79
2021/09/01 00:36:02;;;;;;;15.87;6.87;;;;;;;15.51;81.77;101826.16;5056271;28;20243;-81
2021/09/01 00:38:29;;;;;;;14.07;6.93;;;;;;;15.50;81.89;101830.66;5055220;28;20205;-81
2021/09/01 00:40:57;;;;;;;14.30;6.20;;;;;;;15.52;81.73;101828.72;5061321;28;20204;-80
2021/09/01 00:43:24;;;;;;;13.83;6.17;;;;;;;15.52;82.06;101830.56;5059772;28;20217;-79
2021/09/01 00:45:51;;;;;;;17.23;6.83;;;;;;;15.51;81.66;101828.84;5059543;28;20220;-80
2021/09/01 00:48:18;;;;;;;15.33;6.60;;;;;;;15.51;81.72;101831.50;5054998;28;20205;-81
2021/09/01 00:50:46;;;;;;;19.33;7.40;;;;;;;15.49;81.82;101826.25;5054233;28;20206;-80
2021/09/01 00:53:14;;;;;;;20.90;7.20;;;;;;;15.50;81.80;101829.78;5063932;28;20205;-79
2021/09/01 00:55:43;;;;;;;14.40;6.73;;;;;;;15.49;81.79;101828.94;5054566;28;20594;-81
2021/09/01 00:58:12;;;;;;;21.93;8.00;;;;;;;15.49;81.98;101822.69;5056728;28;20206;-80
2021/09/01 01:00:48;;;;;;;16.47;6.93;;;;;;;15.47;81.83;101821.94;5061127;28;20206;-79
2021/09/01 01:03:14;;;;;;;13.27;7.20;;;;;;;15.46;81.89;101822.91;5056699;28;20205;-79
2021/09/01 01:05:41;;;;;;;22.27;7.53;;;;;;;15.46;81.54;101822.91;5060411;28;20687;-80
2021/09/01 01:08:07;;;;;;;18.30;7.63;;;;;;;15.45;81.81;101826.53;5055279;28;20202;-79
2021/09/01 01:10:35;;;;;;;16.07;6.73;;;;;;;15.43;81.51;101826.63;5053837;28;20209;-80
2021/09/01 01:13:01;;;;;;;15.87;7.40;;;;;;;15.42;81.61;101824.91;5054850;28;20656;-79
2021/09/01 01:15:29;;;;;;;17.10;7.63;;;;;;;15.43;81.79;101833.81;5058904;28;20232;-79
2021/09/01 01:17:56;;;;;;;16.93;7.37;;;;;;;15.40;81.27;101823.31;5058015;28;20208;-79
2021/09/01 01:20:22;;;;;;;16.77;7.27;;;;;;;15.39;81.37;101830.50;5065671;28;20209;-79
2021/09/01 01:22:49;;;;;;;14.07;7.70;;;;;;;15.37;81.19;101823.50;5061108;28;20553;-80
2021/09/01 01:25:31;;;;;;;21.50;7.77;;;;;;;15.35;81.06;101833.47;5055405;28;20245;-82
2021/09/01 01:27:58;;;;;;;18.13;7.13;;;;;;;15.32;81.08;101830.97;5061027;28;20200;-81
2021/09/01 01:30:25;;;;;;;14.63;7.57;;;;;;;15.28;81.00;101836.53;5054213;28;20216;-81
2021/09/01 01:32:53;;;;;;;18.90;8.77;;;;;;;15.26;81.30;101833.09;5055699;28;20209;-79
2021/09/01 01:35:28;;;;;;;16.77;7.50;;;;;;;15.25;81.02;101835.88;5063669;28;20254;-79
2021/09/01 01:37:55;;;;;;;12.60;7.90;;;;;;;15.23;81.27;101837.78;5060332;28;20208;-79
2021/09/01 01:40:22;;;;;;;17.97;8.27;;;;;;;15.22;81.05;101836.09;5056072;28;20201;-81
2021/09/01 01:42:51;;;;;;;20.67;8.10;;;;;;;15.20;81.24;101838.88;5062592;28;20566;-79
2021/09/01 01:45:18;;;;;;;17.03;8.37;;;;;;;15.17;80.97;101838.19;5054298;28;20717;-81
2021/09/01 01:47:45;;;;;;;18.80;8.10;;;;;;;15.15;81.35;101840.97;5055667;28;20836;-81
2021/09/01 01:50:11;;;;;;;16.67;8.13;;;;;;;15.14;81.01;101839.25;5055738;28;20657;-81
2021/09/01 01:52:38;;;;;;;18.33;8.30;;;;;;;15.13;81.19;101848.25;5056286;28;20660;-80
2021/09/01 01:55:07;;;;;;;19.90;8.43;;;;;;;15.13;81.34;101847.41;5054339;28;20327;-80
2021/09/01 01:57:34;;;;;;;18.83;8.07;;;;;;;15.12;81.44;101846.53;5059761;28;20274;-81
2021/09/01 02:00:03;;;;;;;17.73;8.53;;;;;;;15.12;81.40;101845.66;5059859;28;20572;-79
2021/09/01 02:02:30;;;;;;;21.03;8.27;;;;;;;15.12;81.08;101843.84;5051665;28;20672;-79
2021/09/01 02:04:57;;;;;;;15.57;7.73;;;;;;;15.13;81.29;101845.56;5051855;28;20570;-78
2021/09/01 02:07:24;;;;;;;19.27;8.37;;;;;;;15.13;81.19;101852.75;5061538;28;20203;-79
2021/09/01 02:09:50;;;;;;;23.17;7.80;;;;;;;15.11;81.08;101850.19;5051191;28;20590;-79
2021/09/01 02:12:17;;;;;;;18.43;8.20;;;;;;;15.10;81.22;101836.84;5054680;28;20209;-80
2021/09/01 02:14:44;;;;;;;14.43;8.50;;;;;;;15.10;81.15;101847.59;5057243;28;20233;-81
2021/09/01 02:17:11;;;;;;;16.10;7.73;;;;;;;15.10;81.02;101847.59;5053756;28;20216;-79
2021/09/01 02:19:38;;;;;;;13.97;8.23;;;;;;;15.10;80.99;101848.44;5055640;28;20217;-78
2021/09/01 02:22:05;;;;;;;17.43;7.80;;;;;;;15.11;81.21;101844.81;5049824;28;20597;-79
2021/09/01 02:24:31;;;;;;;13.67;7.37;;;;;;;15.11;81.29;101847.50;5057334;28;20225;-79
2021/09/01 02:26:58;;;;;;;17.07;8.07;;;;;;;15.12;81.01;101845.66;5050338;28;20198;-79
2021/09/01 02:29:24;;;;;;;22.17;7.77;;;;;;;15.13;81.07;101844.72;5046774;28;20197;-79
2021/09/01 02:31:51;;;;;;;18.77;7.90;;;;;;;15.13;80.89;101842.91;5050760;28;21459;-78
2021/09/01 02:34:19;;;;;;;17.73;8.30;;;;;;;15.12;81.26;101838.50;5050094;28;20226;-79
2021/09/01 02:36:45;;;;;;;15.87;8.20;;;;;;;15.13;80.62;101845.56;5058095;28;20209;-79
2021/09/01 02:39:12;;;;;;;13.03;7.07;;;;;;;15.13;80.87;101842.03;5052087;28;20208;-79
2021/09/01 02:41:38;;;;;;;21.87;8.10;;;;;;;15.13;81.34;101848.25;5052701;28;20220;-79
2021/09/01 02:44:05;;;;;;;18.83;7.77;;;;;;;15.13;80.89;101842.03;5047760;28;20422;-80
2021/09/01 02:46:31;;;;;;;15.23;7.53;;;;;;;15.14;81.24;101851.81;5042495;28;20292;-78
2021/09/01 02:48:58;;;;;;;17.70;8.13;;;;;;;15.14;81.07;101852.66;5048946;28;20198;-78
2021/09/01 02:51:26;;;;;;;23.47;8.00;;;;;;;15.13;81.05;101845.56;5051607;28;20303;-79
2021/09/01 02:53:52;;;;;;;16.40;7.77;;;;;;;15.13;81.17;101853.63;5064576;28;20212;-78
2021/09/01 02:56:19;;;;;;;17.90;7.47;;;;;;;15.14;81.37;101852.66;5053670;28;20202;-80
2021/09/01 02:58:45;;;;;;;14.03;8.27;;;;;;;15.13;81.11;101847.41;5057861;28;20213;-80
2021/09/01 03:01:13;;;;;;;15.87;8.43;;;;;;;15.11;81.22;101847.50;5051071;28;20644;-78
2021/09/01 03:03:39;;;;;;;14.10;7.93;;;;;;;15.10;80.98;101844.91;5053883;28;20660;-79
2021/09/01 03:06:06;;;;;;;19.30;8.07;;;;;;;15.08;81.08;101846.81;5052090;28;20217;-79
2021/09/01 03:08:34;;;;;;;17.87;8.00;;;;;;;15.07;81.00;101856.69;5048155;28;20212;-78
2021/09/01 03:11:00;;;;;;;18.87;7.97;;;;;;;15.07;81.53;101854.00;5052351;28;20212;-78
2021/09/01 03:13:27;;;;;;;16.73;7.53;;;;;;;15.07;81.37;101856.69;5056982;28;20898;-78
2021/09/01 03:15:54;;;;;;;14.53;7.07;;;;;;;15.05;81.17;101863.13;5052142;28;20239;-78
2021/09/01 03:18:20;;;;;;;13.77;7.47;;;;;;;15.04;81.20;101854.22;5052146;28;20197;-79
2021/09/01 03:20:47;;;;;;;18.73;8.10;;;;;;;15.04;81.15;101859.59;5052841;28;20682;-79
2021/09/01 03:23:13;;;;;;;19.57;8.07;;;;;;;15.04;81.28;101859.59;5063276;28;20205;-79
2021/09/01 03:25:41;;;;;;;16.13;7.70;;;;;;;15.05;81.31;101858.59;5056527;28;20308;-79
2021/09/01 03:28:08;;;;;;;20.50;8.23;;;;;;;15.06;81.20;101856.78;5048039;28;20212;-79
2021/09/01 03:30:35;;;;;;;15.03;8.07;;;;;;;15.04;81.04;101851.53;5056550;28;20213;-77
2021/09/01 03:33:01;;;;;;;15.60;7.47;;;;;;;15.03;80.99;101857.00;5059000;28;20207;-79
2021/09/01 03:35:28;;;;;;;16.20;7.87;;;;;;;15.02;81.17;101849.91;5051336;28;20239;-78
2021/09/01 03:37:54;;;;;;;16.40;7.87;;;;;;;15.02;81.04;101852.59;5047104;28;20217;-77
2021/09/01 03:40:21;;;;;;;18.37;7.93;;;;;;;15.01;80.69;101843.69;5050911;28;20289;-80
2021/09/01 03:42:49;;;;;;;14.23;8.13;;;;;;;15.01;80.71;101853.56;5053169;28;20209;-80
2021/09/01 03:45:16;;;;;;;19.60;8.63;;;;;;;15.00;80.62;101850.00;5046713;28;20222;-80
2021/09/01 03:47:42;;;;;;;18.83;7.87;;;;;;;14.99;81.03;101850.97;5046239;28;20206;-79
2021/09/01 03:50:13;;;;;;;17.13;8.33;;;;;;;14.99;80.97;101850.97;5047712;28;20216;-80
2021/09/01 03:52:39;;;;;;;23.60;8.93;;;;;;;14.99;80.98;101848.28;5052350;28;20205;-80
2021/09/01 03:55:08;;;;;;;17.33;8.03;;;;;;;15.00;81.09;101857.19;5049491;28;20256;-79
2021/09/01 03:57:35;;;;;;;14.57;7.90;;;;;;;14.99;80.73;101859.00;5050538;28;20213;-79
2021/09/01 04:00:03;;;;;;;18.33;8.07;;;;;;;14.98;80.84;101862.66;5052911;28;20205;-80
2021/09/01 04:02:30;;;;;;;13.27;7.37;;;;;;;14.97;80.89;101862.75;5051879;28;22073;-78
2021/09/01 04:04:56;;;;;;;22.63;8.70;;;;;;;14.96;81.03;101864.56;5059347;28;20229;-80
2021/09/01 04:07:23;;;;;;;12.73;7.27;;;;;;;14.96;80.85;101875.28;5053930;28;20201;-78
2021/09/01 04:09:49;;;;;;;20.93;8.40;;;;;;;14.96;81.15;101867.25;5057222;28;20206;-79
2021/09/01 04:12:16;;;;;;;18.40;7.90;;;;;;;14.94;80.80;101867.34;5059097;28;20296;-78
2021/09/01 04:14:42;;;;;;;14.07;7.80;;;;;;;14.93;81.11;101865.59;5052141;28;20230;-79
2021/09/01 04:17:10;;;;;;;14.13;7.97;;;;;;;14.93;80.63;101870.97;5063438;28;20681;-78
2021/09/01 04:19:37;;;;;;;15.20;7.43;;;;;;;14.92;81.05;101861.19;5049423;28;20615;-80
2021/09/01 04:22:04;;;;;;;13.37;7.37;;;;;;;14.92;80.94;101863.03;5052022;28;20609;-80
2021/09/01 04:24:30;;;;;;;15.07;7.80;;;;;;;14.92;81.15;101868.38;5051708;28;20700;-78
2021/09/01 04:26:57;;;;;;;16.27;7.20;;;;;;;14.94;80.89;101866.47;5051175;28;20217;-78
2021/09/01 04:29:23;;;;;;;15.17;7.40;;;;;;;14.94;80.83;101869.16;5070168;28;20208;-79
2021/09/01 04:31:50;;;;;;;13.20;7.30;;;;;;;14.93;80.71;101872.78;5055275;28;20212;-80
2021/09/01 04:34:18;;;;;;;15.80;6.77;;;;;;;14.94;80.83;101874.53;5055909;28;20229;-79
2021/09/01 04:36:44;;;;;;;15.17;6.67;;;;;;;14.93;80.89;101876.34;5053526;28;20234;-80
2021/09/01 04:39:11;;;;;;;13.67;7.27;;;;;;;14.91;80.86;101870.19;5058060;28;20208;-79
2021/09/01 04:41:37;;;;;;;11.20;6.60;;;;;;;14.90;80.53;101876.53;5056723;28;20201;-79
2021/09/01 04:44:04;;;;;;;16.43;7.00;;;;;;;14.92;80.87;101871.06;5055615;28;20208;-79
2021/09/01 04:46:31;;;;;;;13.60;6.27;;;;;;;14.93;80.84;101870.09;5061881;28;20288;-80
2021/09/01 04:48:57;;;;;;;10.80;5.87;;;;;;;14.92;80.90;101877.28;5055122;28;20206;-79
2021/09/01 04:51:31;;;;;;;17.80;6.80;;;;;;;14.93;80.67;101875.47;5059485;28;20228;-79
2021/09/01 04:53:58;;;;;;;12.27;6.90;;;;;;;14.93;80.84;101873.66;5054592;28;20197;-80
2021/09/01 04:56:25;;;;;;;14.67;7.33;;;;;;;14.93;80.70;101872.78;5056237;28;20218;-80
2021/09/01 04:58:51;;;;;;;23.23;7.90;;;;;;;14.93;80.65;101867.44;5058693;28;20582;-79
2021/09/01 05:01:18;;;;;;;18.03;7.20;;;;;;;14.92;80.58;101871.94;5056616;28;20204;-80
2021/09/01 05:03:45;;;;;;;14.43;7.63;;;;;;;14.93;80.61;101880.84;5053356;28;20210;-79
2021/09/01 05:06:11;;;;;;;11.60;7.17;;;;;;;14.92;80.86;101879.13;5050080;28;20225;-80
2021/09/01 05:08:39;;;;;;;17.80;8.03;;;;;;;14.94;80.88;101879.88;5047421;28;20215;-78
2021/09/01 05:11:06;;;;;;;16.03;6.90;;;;;;;14.93;80.66;101886.19;5047277;28;20198;-78
2021/09/01 05:13:32;;;;;;;13.30;6.83;;;;;;;14.93;80.57;101889.75;5050644;28;20205;-79
2021/09/01 05:16:01;;;;;;;17.80;7.80;;;;;;;14.93;80.64;101895.13;5044409;28;20313;-80
2021/09/01 05:18:28;;;;;;;14.83;7.10;;;;;;;14.94;80.80;101899.53;5043623;28;20220;-80
2021/09/01 05:20:58;;;;;;;15.57;7.30;;;;;;;14.96;80.48;101909.31;5044982;28;20216;-77
2021/09/01 05:23:31;;;;;;;14.07;7.00;;;;;;;14.97;80.52;101905.66;5050141;28;20194;-80
2021/09/01 05:26:01;;;;;;;14.13;7.13;;;;;;;14.98;80.57;101897.53;5042722;28;20226;-81
2021/09/01 05:28:29;;;;;;;19.10;7.10;;;;;;;14.99;80.53;101904.63;5043403;28;20216;-80
2021/09/01 05:30:58;;;;;;;12.03;6.73;;;;;;;15.02;80.55;101915.16;5043841;28;20220;-79
2021/09/01 05:33:28;;;;;;;23.53;7.73;;;;;;;15.04;80.86;101923.97;5043141;28;20332;-79
2021/09/01 05:35:55;;;;;;;15.73;7.20;;;;;;;15.06;80.55;101923.84;5042577;28;20233;-79
2021/09/01 05:38:22;;;;;;;14.97;6.90;;;;;;;15.05;80.71;101920.31;5045445;28;20222;-78
2021/09/01 05:40:49;;;;;;;11.10;6.43;;;;;;;15.06;80.38;101926.53;5041767;28;20241;-78
2021/09/01 05:43:19;;;;;;;15.67;7.33;;;;;;;15.05;80.56;101912.25;5043336;28;20205;-81
2021/09/01 05:45:48;;;;;;;17.43;6.67;;;;;;;15.07;80.62;101920.22;5038979;28;20221;-80
2021/09/01 05:48:15;;;;;;;15.10;6.97;;;;;;;15.08;80.36;101921.94;5042184;28;20572;-80
2021/09/01 05:50:42;;;;;;;13.50;7.33;;;;;;;15.09;80.29;101921.00;5045308;28;20213;-79
2021/09/01 05:53:09;;;;;;;14.97;7.60;;;;;;;15.09;80.07;101929.03;5040801;28;20202;-80
2021/09/01 05:55:41;;;;;;;10.23;6.37;;;;;;;15.12;80.22;101921.66;5043363;28;20225;-80
2021/09/01 05:58:12;;;;;;;11.60;6.77;;;;;;;15.13;80.62;101923.41;5046639;28;20206;-80
2021/09/01 06:00:41;;;;;;;13.27;6.90;;;;;;;15.16;80.40;101925.91;5042256;28;20228;-80
2021/09/01 06:03:16;;;;;;;11.20;7.23;;;;;;;15.17;80.37;101922.25;5047944;28;20647;-77
2021/09/01 06:05:44;;;;;;;16.40;7.23;;;;;;;15.21;80.12;101928.31;5047116;28;20259;-78
2021/09/01 06:08:12;;;;;;;13.43;6.43;;;;;;;15.23;80.11;101929.91;5044411;28;20216;-79
2021/09/01 06:10:39;;;;;;;14.17;7.13;;;;;;;15.23;79.77;101921.84;5047103;28;20210;-80
2021/09/01 06:13:08;;;;;;;13.63;6.97;;;;;;;15.23;79.55;101924.53;5043394;28;20207;-79
2021/09/01 06:15:36;;;;;;;13.40;6.83;;;;;;;15.25;79.48;101921.75;5048889;28;20230;-81
2021/09/01 06:18:04;;;;;;;11.50;6.67;;;;;;;15.26;79.42;101923.47;5042649;28;20230;-80
2021/09/01 06:20:32;;;;;;;14.77;6.80;;;;;;;15.27;79.61;101930.56;5041475;28;20224;-80
2021/09/01 06:22:59;;;;;;;12.20;7.13;;;;;;;15.28;79.52;101927.81;5042093;28;20220;-80
2021/09/01 06:25:26;;;;;;;12.50;7.30;;;;;;;15.30;79.16;101930.41;5047886;28;20218;-80
2021/09/01 06:27:52;;;;;;;13.27;7.20;;;;;;;15.31;79.12;101926.75;5043118;28;20201;-79
2021/09/01 06:30:19;;;;;;;14.03;6.77;;;;;;;15.33;79.26;101932.03;5040707;28;20296;-80
2021/09/01 06:32:46;;;;;;;11.63;7.00;;;;;;;15.34;79.11;101928.38;5041295;28;20198;-78
2021/09/01 06:35:14;;;;;;;12.60;7.17;;;;;;;15.36;78.77;101934.53;5048687;28;20953;-78
2021/09/01 06:37:42;;;;;;;14.63;6.80;;;;;;;15.40;78.78;101938.75;5045249;28;20281;-80
2021/09/01 06:40:11;;;;;;;11.63;6.20;;;;;;;15.42;78.84;101934.13;5051317;28;20198;-80
2021/09/01 06:42:38;;;;;;;16.67;6.80;;;;;;;15.44;78.74;101943.81;5049671;28;20582;-78
2021/09/01 06:45:05;;;;;;;11.20;6.00;;;;;;;15.47;78.45;101948.13;5044472;28;20348;-80
2021/09/01 06:47:39;;;;;;;16.10;6.43;;;;;;;15.50;78.40;101945.25;5049174;28;20209;-80
2021/09/01 06:50:06;;;;;;;14.40;5.93;;;;;;;15.54;78.42;101944.09;5042717;28;20265;-79
2021/09/01 06:52:34;;;;;;;12.03;6.13;;;;;;;15.57;78.06;101944.81;5046746;28;20213;-80
2021/09/01 06:55:01;;;;;;;12.70;6.47;;;;;;;15.60;78.16;101952.63;5053391;28;20229;-81
2021/09/01 06:57:27;;;;;;;12.13;6.80;;;;;;;15.63;78.11;101954.28;5051041;28;20321;-80
2021/09/01 06:59:54;;;;;;;8.17;5.60;;;;;;;15.66;77.82;101953.22;5054173;28;20205;-81
2021/09/01 07:02:20;;;;;;;14.37;6.10;;;;;;;15.67;77.69;101961.19;5048630;28;20592;-79
2021/09/01 07:04:47;;;;;;;10.40;5.97;;;;;;;15.69;77.33;101964.63;5052173;28;20700;-78
2021/09/01 07:07:13;;;;;;;11.80;6.40;;;;;;;15.73;77.20;101962.63;5050692;28;20204;-79
2021/09/01 07:09:41;;;;;;;15.67;7.20;;;;;;;15.74;77.21;101964.34;5054316;28;20296;-78
2021/09/01 07:12:08;;;;;;;13.37;6.13;;;;;;;15.75;76.93;101964.25;5058424;28;20201;-79
2021/09/01 07:14:35;;;;;;;11.33;6.03;;;;;;;15.79;76.72;101960.38;5051931;28;20226;-79
2021/09/01 07:17:01;;;;;;;12.43;5.83;;;;;;;15.83;76.61;101961.91;5055170;28;20321;-79
2021/09/01 07:19:28;;;;;;;12.30;6.17;;;;;;;15.89;76.82;101966.03;5052505;28;20217;-77
2021/09/01 07:21:54;;;;;;;15.73;6.07;;;;;;;15.94;76.42;101959.38;5056305;28;20218;-78
2021/09/01 07:24:21;;;;;;;12.00;5.87;;;;;;;16.01;76.34;101975.13;5050816;28;20706;-77
2021/09/01 07:26:49;;;;;;;9.27;5.50;;;;;;;16.07;76.07;101975.59;5052419;28;20199;-79
2021/09/01 07:29:15;;;;;;;12.60;5.80;;;;;;;16.10;75.74;101979.91;5045916;28;20210;-80
2021/09/01 07:31:42;;;;;;;8.67;5.70;;;;;;;16.12;75.09;101980.69;5047476;28;20222;-80
2021/09/01 07:34:08;;;;;;;15.07;6.23;;;;;;;16.17;75.39;101975.84;5050372;28;20734;-80
2021/09/01 07:36:35;;;;;;;13.53;6.83;;;;;;;16.22;75.08;101971.03;5046195;28;20623;-80
2021/09/01 07:39:02;;;;;;;11.70;6.37;;;;;;;16.25;74.73;101977.06;5049253;28;20211;-80
2021/09/01 07:41:28;;;;;;;15.63;6.47;;;;;;;16.30;74.86;101969.53;5050998;28;20208;-78
2021/09/01 07:43:56;;;;;;;13.07;6.90;;;;;;;16.36;74.24;101980.84;5049868;28;20289;-80
2021/09/01 07:46:22;;;;;;;11.83;7.10;;;;;;;16.41;74.24;101978.75;5048096;28;20202;-79
2021/09/01 07:48:49;;;;;;;13.40;6.90;;;;;;;16.50;74.37;101970.91;5048894;28;20206;-78
2021/09/01 07:51:16;;;;;;;12.40;6.67;;;;;;;16.59;74.11;101961.38;5043226;28;20298;-79
2021/09/01 07:53:44;;;;;;;11.77;6.90;;;;;;;16.66;73.66;101966.25;5046138;28;20201;-78
2021/09/01 07:56:11;;;;;;;11.23;6.20;;;;;;;16.71;73.58;101965.94;5048451;28;20768;-79
2021/09/01 07:58:37;;;;;;;12.17;6.90;;;;;;;16.77;73.41;101961.97;5045321;28;20216;-78
2021/09/01 08:01:06;;;;;;;15.70;6.20;;;;;;;16.83;73.16;101964.25;5047240;28;20200;-79
2021/09/01 08:03:32;;;;;;;10.33;6.10;;;;;;;16.90;73.17;101965.53;5062578;28;20204;-79
2021/09/01 08:05:59;;;;;;;14.50;6.80;;;;;;;16.97;72.79;101965.03;5054291;28;20226;-78
2021/09/01 08:08:26;;;;;;;14.60;7.10;;;;;;;17.03;72.51;101963.72;5064932;28;20207;-77
2021/09/01 08:10:53;;;;;;;14.40;7.00;;;;;;;17.07;72.11;101967.91;5057702;28;20217;-79
2021/09/01 08:13:19;;;;;;;15.77;6.77;;;;;;;17.12;71.78;101976.53;5063671;28;20292;-78
2021/09/01 08:15:46;;;;;;;15.47;6.77;;;;;;;17.19;71.46;101968.91;5058281;28;20234;-79
2021/09/01 08:18:14;;;;;;;13.43;6.53;;;;;;;17.25;71.05;101972.00;5054932;28;20203;-79
2021/09/01 08:20:40;;;;;;;11.97;6.50;;;;;;;17.33;70.74;101983.13;5061530;28;20212;-79
2021/09/01 08:23:07;;;;;;;9.60;6.47;;;;;;;17.48;70.87;101991.06;5044411;28;20208;-76
2021/09/01 08:25:34;;;;;;;13.53;6.77;;;;;;;17.60;70.33;101982.97;5053022;28;20644;-78
2021/09/01 08:28:00;;;;;;;14.97;7.43;;;;;;;17.69;69.68;101984.19;5052322;28;20200;-79
2021/09/01 08:30:27;;;;;;;11.17;7.07;;;;;;;17.74;69.20;101989.22;5053771;28;20208;-78
2021/09/01 08:32:53;;;;;;;12.77;7.13;;;;;;;17.79;69.16;101979.84;5046542;28;20652;-79
2021/09/01 08:35:21;;;;;;;12.63;7.53;;;;;;;17.90;69.02;101996.13;5050518;28;20232;-79
2021/09/01 08:37:49;;;;;;;11.50;7.00;;;;;;;18.02;68.98;101987.13;5046839;28;20729;-77
2021/09/01 08:40:16;;;;;;;11.13;7.37;;;;;;;18.12;68.43;101997.22;5050356;28;20305;-77
2021/09/01 08:42:43;;;;;;;16.43;7.37;;;;;;;18.16;67.97;101996.03;5050440;28;20719;-78
2021/09/01 08:45:10;;;;;;;16.00;7.40;;;;;;;18.17;67.73;101993.22;5050081;28;20221;-75
2021/09/01 08:47:40;;;;;;;13.13;7.60;;;;;;;18.19;67.75;101995.81;5052588;28;20201;-78
2021/09/01 08:50:07;;;;;;;14.03;7.40;;;;;;;18.25;67.44;102000.75;5053701;28;20205;-77
2021/09/01 08:52:38;;;;;;;17.13;7.83;;;;;;;18.27;66.99;101996.09;5053290;28;20208;-78
2021/09/01 08:55:05;;;;;;;15.97;7.87;;;;;;;18.31;66.83;101997.56;5052921;28;20280;-78
2021/09/01 08:57:32;;;;;;;15.80;7.90;;;;;;;18.34;66.76;102000.06;5052456;28;20233;-79
2021/09/01 08:59:58;;;;;;;14.00;8.23;;;;;;;18.36;66.23;102000.81;5048497;28;20206;-77
2021/09/01 09:02:29;;;;;;;14.13;8.13;;;;;;;18.43;66.30;101993.13;5045831;28;20202;-79
2021/09/01 09:04:56;;;;;;;14.00;7.83;;;;;;;18.49;66.15;102001.59;5048162;28;20236;-78
2021/09/01 09:07:23;;;;;;;14.03;7.37;;;;;;;18.55;65.78;101998.44;5049088;28;20329;-79
2021/09/01 09:09:52;;;;;;;11.23;7.63;;;;;;;18.55;65.34;101997.59;5052776;28;20209;-78
2021/09/01 09:12:30;;;;;;;13.27;7.77;;;;;;;18.59;65.34;102005.38;5050129;28;20207;-77
2021/09/01 09:14:57;;;;;;;14.40;11.07;;;;;;;18.63;65.18;102004.13;5038929;28;20227;-79
2021/09/01 09:17:23;;;;;;;11.97;7.33;;;;;;;18.66;65.12;101998.50;5045184;28;20235;-79
2021/09/01 09:19:52;;;;;;;14.40;6.87;;;;;;;18.69;64.75;101995.59;5048681;28;20220;-77
2021/09/01 09:22:26;;;;;;;10.40;6.70;;;;;;;18.71;64.86;101999.03;5044792;28;20209;-79
2021/09/01 09:25:10;;;;;;;11.50;7.13;;;;;;;18.70;64.67;101991.91;5046933;28;20662;-78
2021/09/01 09:27:43;;;;;;;12.67;7.20;;;;;;;18.69;64.58;102000.13;5040758;28;20206;-80
2021/09/01 09:30:34;;;;;;;16.97;11.40;;;;;;;18.71;64.75;102007.13;5045310;28;20568;-78
2021/09/01 09:33:03;;;;;;;10.40;6.57;;;;;;;18.72;65.07;102005.28;5042957;28;20204;-81
2021/09/01 09:35:52;;;;;;;10.57;6.43;;;;;;;18.73;64.93;102013.28;5041226;28;20225;-79
2021/09/01 09:38:29;;;;;;;11.07;6.53;;;;;;;18.76;64.88;102006.78;5042657;28;20229;-80
2021/09/01 09:40:57;;;;;;;11.97;6.67;;;;;;;18.76;64.56;102019.41;5045877;28;20207;-78
2021/09/01 09:43:25;;;;;;;10.13;6.70;;;;;;;18.77;64.55;102008.50;5040093;28;20964;-78
2021/09/01 09:46:00;;;;;;;10.53;5.80;;;;;;;18.79;64.51;102011.09;5043512;28;20235;-78
2021/09/01 09:48:28;;;;;;;13.20;6.33;;;;;;;18.81;64.46;102019.94;5047710;28;20245;-80
2021/09/01 09:50:55;;;;;;;10.67;6.47;;;;;;;18.83;64.30;102015.25;5046231;28;20690;-78
2021/09/01 09:53:36;;;;;;;9.80;6.03;;;;;;;18.91;64.38;102012.84;5044805;28;20210;-79
2021/09/01 09:56:12;;;;;;;9.40;5.70;;;;;;;19.05;64.65;102018.03;5043518;28;20230;-80
2021/09/01 09:58:40;;;;;;;8.83;5.93;;;;;;;19.13;63.91;102014.75;5044862;28;20329;-80
2021/09/01 10:01:08;;;;;;;8.73;5.80;;;;;;;19.14;63.65;102011.94;5043370;28;20209;-79
2021/09/01 10:03:35;;;;;;;8.03;5.90;;;;;;;19.17;63.46;102003.56;5041939;28;20225;-78
2021/09/01 10:06:03;;;;;;;13.10;6.23;;;;;;;19.24;63.28;102009.38;5048101;28;20228;-80
2021/09/01 10:08:32;;;;;;;10.63;5.73;;;;;;;19.33;63.42;102005.97;5043478;28;20211;-79
2021/09/01 10:10:59;;;;;;;9.00;5.20;;;;;;;19.45;62.99;102004.13;5043268;28;20213;-79
2021/09/01 10:13:29;;;;;;;12.47;5.80;;;;;;;19.47;62.62;102004.84;5042082;28;20701;-77
2021/09/01 10:16:09;;;;;;;10.60;5.23;;;;;;;19.50;62.28;102001.94;5051013;28;20239;-78
2021/09/01 10:18:39;;;;;;;8.67;5.73;;;;;;;19.60;62.41;102008.31;5048546;28;20242;-79
2021/09/01 10:21:07;;;;;;;11.83;5.70;;;;;;;19.70;62.48;102012.03;5052797;28;20310;-80
2021/09/01 10:23:38;;;;;;;9.77;6.17;;;;;;;19.81;62.28;102022.81;5048784;28;20209;-80
2021/09/01 10:26:25;;;;;;;9.47;5.57;;;;;;;19.90;61.69;102013.09;5045083;28;20234;-80
2021/09/01 10:28:54;;;;;;;7.73;5.63;;;;;;;19.92;60.84;102017.41;5042462;28;20210;-79
2021/09/01 10:31:23;;;;;;;8.33;5.20;;;;;;;19.95;60.83;102014.44;5046505;28;20215;-80
2021/09/01 10:33:52;;;;;;;9.13;5.20;;;;;;;19.98;60.46;102007.94;5042136;28;20214;-80
2021/09/01 10:36:48;;;;;;;10.87;5.57;;;;;;;19.99;60.34;102015.06;5043766;28;20568;-79
2021/09/01 10:39:46;;;;;;;8.80;4.93;;;;;;;20.00;59.71;102016.78;5044072;28;20205;-77
2021/09/01 10:42:37;;;;;;;8.87;5.43;;;;;;;19.96;59.98;102005.34;5040990;28;20218;-80
2021/09/01 10:45:09;;;;;;;8.80;5.10;;;;;;;19.98;59.78;102006.09;5043151;28;20225;-75
2021/09/01 10:48:15;;;;;;;9.00;5.20;;;;;;;20.00;59.67;102003.28;5039221;28;20200;-80
2021/09/01 10:50:43;;;;;;;7.63;5.03;;;;;;;19.98;58.98;102000.69;5041018;28;20200;-79
2021/09/01 10:53:20;;;;;;;7.93;5.10;;;;;;;20.01;58.79;101996.88;5044601;28;20287;-80
2021/09/01 10:55:59;;;;;;;9.57;5.50;;;;;;;20.06;59.14;101995.50;5041273;28;20227;-78
2021/09/01 10:58:35;;;;;;;6.37;4.73;;;;;;;20.20;59.44;101993.53;5045286;28;20713;-80
2021/09/01 11:01:12;;;;;;;9.97;5.10;;;;;;;20.31;59.11;101999.75;5045140;28;20203;-80
2021/09/01 11:03:40;;;;;;;10.73;5.00;;;;;;;20.36;58.60;102007.50;5044855;28;20289;-80
2021/09/01 11:06:11;;;;;;;10.13;5.93;;;;;;;20.35;58.18;101994.94;5049504;28;20228;-80
2021/09/01 11:08:37;;;;;;;10.07;5.27;;;;;;;20.37;58.30;102003.84;5048062;28;20203;-79
2021/09/01 11:11:04;;;;;;;7.93;5.70;;;;;;;20.40;58.20;102009.84;5051439;28;20207;-79
2021/09/01 11:13:40;;;;;;;11.53;5.67;;;;;;;20.44;58.31;102005.88;5047304;28;20283;-79
2021/09/01 11:16:19;;;;;;;8.03;5.27;;;;;;;20.46;58.36;101997.63;5046979;28;20234;-79
2021/09/01 11:18:59;;;;;;;10.73;5.20;;;;;;;20.46;57.89;102003.06;5044448;28;20213;-80
2021/09/01 11:21:27;;;;;;;7.77;4.57;;;;;;;20.48;57.69;101998.38;5047373;28;20211;-80
2021/09/01 11:23:55;;;;;;;9.67;4.80;;;;;;;20.54;58.26;101994.31;5044483;28;20210;-80